sensor_id;sensor_type;location;lat;lon;timestamp;temperature;humidity
33328;DHT22;19692;52.998;9.116;2023-03-12T00:01:49;0.40;99.90
33328;DHT22;19692;52.998;9.116;2023-03-12T00:04:15;0.30;99.90
33328;DHT22;19692;52.998;9.116;2023-03-12T00:06:41;0.30;99.90
33328;DHT22;19692;52.998;9.116;2023-03-12T00:09:06;0.30;99.90
33328;DHT22;19692;52.998;9.116;2023-03-12T00:11:33;0.30;99.90
33328;DHT22;19692;52.998;9.116;2023-03-12T00:13:59;0.30;99.90
33328;DHT22;19692;52.998;9.116;2023-03-12T00:16:26;0.30;99.90
33328;DHT22;19692;52.998;9.116;2023-03-12T00:18:53;0.20;99.90
33328;DHT22;19692;52.998;9.116;2023-03-12T00:21:20;0.20;99.90
33328;DHT22;19692;52.998;9.116;2023-03-12T00:23:50;0.10;99.90
33328;DHT22;19692;52.998;9.116;2023-03-12T00:26:17;0.20;99.90
33328;DHT22;19692;52.998;9.116;2023-03-12T00:28:44;0.20;99.90
33328;DHT22;19692;52.998;9.116;2023-03-12T00:31:26;0.20;99.90
33328;DHT22;19692;52.998;9.116;2023-03-12T00:33:55;0.20;99.90
33328;DHT22;19692;52.998;9.116;2023-03-12T00:36:24;0.20;99.90
33328;DHT22;19692;52.998;9.116;2023-03-12T00:38:51;0.20;99.90
33328;DHT22;19692;52.998;9.116;2023-03-12T00:41:17;0.20;99.90
33328;DHT22;19692;52.998;9.116;2023-03-12T00:43:48;0.20;99.90
33328;DHT22;19692;52.998;9.116;2023-03-12T00:46:14;0.10;99.90
33328;DHT22;19692;52.998;9.116;2023-03-12T00:48:40;0.10;99.90
33328;DHT22;19692;52.998;9.116;2023-03-12T00:51:06;0.00;99.90
33328;DHT22;19692;52.998;9.116;2023-03-12T00:53:33;0.00;99.90
33328;DHT22;19692;52.998;9.116;2023-03-12T00:56:00;0.00;99.90
33328;DHT22;19692;52.998;9.116;2023-03-12T00:58:26;0.00;99.90
33328;DHT22;19692;52.998;9.116;2023-03-12T01:00:51;-0.10;99.90
33328;DHT22;19692;52.998;9.116;2023-03-12T01:03:17;-0.20;99.90
33328;DHT22;19692;52.998;9.116;2023-03-12T01:05:43;-0.20;99.90
33328;DHT22;19692;52.998;9.116;2023-03-12T01:08:09;-0.30;99.90
33328;DHT22;19692;52.998;9.116;2023-03-12T01:10:38;-0.30;99.90
33328;DHT22;19692;52.998;9.116;2023-03-12T01:13:06;-0.30;99.90
33328;DHT22;19692;52.998;9.116;2023-03-12T01:15:33;-0.50;99.90
33328;DHT22;19692;52.998;9.116;2023-03-12T01:17:58;-0.60;99.90
33328;DHT22;19692;52.998;9.116;2023-03-12T01:20:24;-0.70;99.90
33328;DHT22;19692;52.998;9.116;2023-03-12T01:22:50;-0.90;99.90
33328;DHT22;19692;52.998;9.116;2023-03-12T01:25:16;-1.00;99.90
33328;DHT22;19692;52.998;9.116;2023-03-12T01:27:42;-1.00;99.90
33328;DHT22;19692;52.998;9.116;2023-03-12T01:30:09;-1.10;99.90
33328;DHT22;19692;52.998;9.116;2023-03-12T01:32:35;-1.10;99.90
33328;DHT22;19692;52.998;9.116;2023-03-12T01:35:03;-1.20;99.90
33328;DHT22;19692;52.998;9.116;2023-03-12T01:37:30;-1.20;99.90
33328;DHT22;19692;52.998;9.116;2023-03-12T01:39:56;-1.20;99.90
33328;DHT22;19692;52.998;9.116;2023-03-12T01:42:22;-1.10;99.90
33328;DHT22;19692;52.998;9.116;2023-03-12T01:47:28;-1.00;99.90
33328;DHT22;19692;52.998;9.116;2023-03-12T01:49:59;-0.90;99.90
33328;DHT22;19692;52.998;9.116;2023-03-12T01:52:32;-0.80;99.90
33328;DHT22;19692;52.998;9.116;2023-03-12T01:55:14;-0.70;99.90
33328;DHT22;19692;52.998;9.116;2023-03-12T01:57:51;-0.70;99.90
33328;DHT22;19692;52.998;9.116;2023-03-12T02:00:24;-0.60;99.90
33328;DHT22;19692;52.998;9.116;2023-03-12T02:02:54;-0.80;99.90
33328;DHT22;19692;52.998;9.116;2023-03-12T02:05:37;-1.00;99.90
33328;DHT22;19692;52.998;9.116;2023-03-12T02:08:09;-1.10;99.90
33328;DHT22;19692;52.998;9.116;2023-03-12T02:10:35;-1.20;99.90
33328;DHT22;19692;52.998;9.116;2023-03-12T02:13:01;-1.20;99.90
33328;DHT22;19692;52.998;9.116;2023-03-12T02:15:27;-1.30;99.90
33328;DHT22;19692;52.998;9.116;2023-03-12T02:17:53;-1.30;99.90
33328;DHT22;19692;52.998;9.116;2023-03-12T02:23:24;-1.40;99.90
33328;DHT22;19692;52.998;9.116;2023-03-12T02:25:51;-1.40;99.90
33328;DHT22;19692;52.998;9.116;2023-03-12T02:28:20;-1.50;99.90
33328;DHT22;19692;52.998;9.116;2023-03-12T02:30:50;-1.50;99.90
33328;DHT22;19692;52.998;9.116;2023-03-12T02:33:17;-1.50;99.90
33328;DHT22;19692;52.998;9.116;2023-03-12T02:35:45;-1.60;99.90
33328;DHT22;19692;52.998;9.116;2023-03-12T02:38:34;-1.70;99.90
33328;DHT22;19692;52.998;9.116;2023-03-12T02:41:28;-1.70;99.90
33328;DHT22;19692;52.998;9.116;2023-03-12T02:44:18;-1.90;99.90
33328;DHT22;19692;52.998;9.116;2023-03-12T02:46:49;-1.90;99.90
33328;DHT22;19692;52.998;9.116;2023-03-12T02:49:17;-1.90;99.90
33328;DHT22;19692;52.998;9.116;2023-03-12T02:51:46;-2.00;99.90
33328;DHT22;19692;52.998;9.116;2023-03-12T02:54:13;-1.80;99.90
33328;DHT22;19692;52.998;9.116;2023-03-12T02:56:41;-1.80;99.90
33328;DHT22;19692;52.998;9.116;2023-03-12T02:59:08;-1.80;99.90
33328;DHT22;19692;52.998;9.116;2023-03-12T03:01:34;-1.80;99.90
33328;DHT22;19692;52.998;9.116;2023-03-12T03:04:01;-1.70;99.90
33328;DHT22;19692;52.998;9.116;2023-03-12T03:06:29;-1.70;99.90
33328;DHT22;19692;52.998;9.116;2023-03-12T03:08:55;-1.70;99.90
33328;DHT22;19692;52.998;9.116;2023-03-12T03:11:21;-1.60;99.90
33328;DHT22;19692;52.998;9.116;2023-03-12T03:13:50;-1.60;99.90
33328;DHT22;19692;52.998;9.116;2023-03-12T03:16:16;-1.50;99.90
33328;DHT22;19692;52.998;9.116;2023-03-12T03:18:42;-1.60;99.90
33328;DHT22;19692;52.998;9.116;2023-03-12T03:21:09;-1.50;99.90
33328;DHT22;19692;52.998;9.116;2023-03-12T03:23:38;-1.40;99.90
33328;DHT22;19692;52.998;9.116;2023-03-12T03:26:04;-1.50;99.90
33328;DHT22;19692;52.998;9.116;2023-03-12T03:28:30;-1.60;99.90
33328;DHT22;19692;52.998;9.116;2023-03-12T03:30:57;-1.70;99.90
33328;DHT22;19692;52.998;9.116;2023-03-12T03:33:26;-1.80;99.90
33328;DHT22;19692;52.998;9.116;2023-03-12T03:35:53;-2.00;99.90
33328;DHT22;19692;52.998;9.116;2023-03-12T03:38:21;-2.00;99.90
33328;DHT22;19692;52.998;9.116;2023-03-12T03:40:47;-2.00;99.90
33328;DHT22;19692;52.998;9.116;2023-03-12T03:43:13;-2.00;99.90
33328;DHT22;19692;52.998;9.116;2023-03-12T03:45:39;-1.90;99.90
33328;DHT22;19692;52.998;9.116;2023-03-12T03:48:05;-1.80;99.90
33328;DHT22;19692;52.998;9.116;2023-03-12T03:50:30;-1.80;99.90
33328;DHT22;19692;52.998;9.116;2023-03-12T03:52:57;-1.80;99.90
33328;DHT22;19692;52.998;9.116;2023-03-12T03:55:22;-1.80;99.90
33328;DHT22;19692;52.998;9.116;2023-03-12T03:57:48;-1.70;99.90
33328;DHT22;19692;52.998;9.116;2023-03-12T04:00:14;-1.60;99.90
33328;DHT22;19692;52.998;9.116;2023-03-12T04:02:43;-1.70;99.90
33328;DHT22;19692;52.998;9.116;2023-03-12T04:05:09;-1.60;99.90
33328;DHT22;19692;52.998;9.116;2023-03-12T04:07:35;-1.60;99.90
33328;DHT22;19692;52.998;9.116;2023-03-12T04:10:03;-1.70;99.90
33328;DHT22;19692;52.998;9.116;2023-03-12T04:12:29;-1.70;99.90
33328;DHT22;19692;52.998;9.116;2023-03-12T04:14:55;-1.60;99.90
33328;DHT22;19692;52.998;9.116;2023-03-12T04:17:21;-1.60;99.90
33328;DHT22;19692;52.998;9.116;2023-03-12T04:19:47;-1.70;99.90
33328;DHT22;19692;52.998;9.116;2023-03-12T04:22:13;-1.80;99.90
33328;DHT22;19692;52.998;9.116;2023-03-12T04:24:38;-1.80;99.90
33328;DHT22;19692;52.998;9.116;2023-03-12T04:27:04;-1.70;99.90
33328;DHT22;19692;52.998;9.116;2023-03-12T04:29:30;-1.70;99.90
33328;DHT22;19692;52.998;9.116;2023-03-12T04:31:56;-1.70;99.90
33328;DHT22;19692;52.998;9.116;2023-03-12T04:34:22;-1.60;99.90
33328;DHT22;19692;52.998;9.116;2023-03-12T04:36:48;-1.60;99.90
33328;DHT22;19692;52.998;9.116;2023-03-12T04:39:18;-1.60;99.90
33328;DHT22;19692;52.998;9.116;2023-03-12T04:41:44;-1.60;99.90
33328;DHT22;19692;52.998;9.116;2023-03-12T04:44:11;-1.50;99.90
33328;DHT22;19692;52.998;9.116;2023-03-12T04:46:37;-1.50;99.90
33328;DHT22;19692;52.998;9.116;2023-03-12T04:49:03;-1.40;99.90
33328;DHT22;19692;52.998;9.116;2023-03-12T04:51:30;-1.40;99.90
33328;DHT22;19692;52.998;9.116;2023-03-12T04:53:56;-1.50;99.90
33328;DHT22;19692;52.998;9.116;2023-03-12T04:56:22;-1.60;99.90
33328;DHT22;19692;52.998;9.116;2023-03-12T04:58:48;-1.60;99.90
33328;DHT22;19692;52.998;9.116;2023-03-12T05:01:26;-1.60;99.90
33328;DHT22;19692;52.998;9.116;2023-03-12T05:03:53;-1.60;99.90
33328;DHT22;19692;52.998;9.116;2023-03-12T05:06:21;-1.60;99.90
33328;DHT22;19692;52.998;9.116;2023-03-12T05:08:47;-1.50;99.90
33328;DHT22;19692;52.998;9.116;2023-03-12T05:11:13;-1.50;99.90
33328;DHT22;19692;52.998;9.116;2023-03-12T05:13:40;-1.50;99.90
33328;DHT22;19692;52.998;9.116;2023-03-12T05:16:06;-1.50;99.90
33328;DHT22;19692;52.998;9.116;2023-03-12T05:18:32;-1.50;99.90
33328;DHT22;19692;52.998;9.116;2023-03-12T05:21:05;-1.60;99.90
33328;DHT22;19692;52.998;9.116;2023-03-12T05:23:38;-1.50;99.90
33328;DHT22;19692;52.998;9.116;2023-03-12T05:26:14;-1.60;99.90
33328;DHT22;19692;52.998;9.116;2023-03-12T05:28:41;-1.60;99.90
33328;DHT22;19692;52.998;9.116;2023-03-12T05:31:09;-1.60;99.90
33328;DHT22;19692;52.998;9.116;2023-03-12T05:33:36;-1.50;99.90
33328;DHT22;19692;52.998;9.116;2023-03-12T05:36:03;-1.50;99.90
33328;DHT22;19692;52.998;9.116;2023-03-12T05:38:29;-1.50;99.90
33328;DHT22;19692;52.998;9.116;2023-03-12T05:40:56;-1.40;99.90
33328;DHT22;19692;52.998;9.116;2023-03-12T05:43:24;-1.50;99.90
33328;DHT22;19692;52.998;9.116;2023-03-12T05:45:51;-1.50;99.90
33328;DHT22;19692;52.998;9.116;2023-03-12T05:48:17;-1.50;99.90
33328;DHT22;19692;52.998;9.116;2023-03-12T05:50:43;-1.40;99.90
33328;DHT22;19692;52.998;9.116;2023-03-12T05:53:10;-1.40;99.90
33328;DHT22;19692;52.998;9.116;2023-03-12T05:55:37;-1.40;99.90
33328;DHT22;19692;52.998;9.116;2023-03-12T05:58:05;-1.30;99.90
33328;DHT22;19692;52.998;9.116;2023-03-12T06:00:32;-1.30;99.90
33328;DHT22;19692;52.998;9.116;2023-03-12T06:03:05;-1.30;99.90
33328;DHT22;19692;52.998;9.116;2023-03-12T06:05:31;-1.30;99.90
33328;DHT22;19692;52.998;9.116;2023-03-12T06:07:58;-1.30;99.90
33328;DHT22;19692;52.998;9.116;2023-03-12T06:10:24;-1.20;99.90
33328;DHT22;19692;52.998;9.116;2023-03-12T06:12:50;-1.10;99.90
33328;DHT22;19692;52.998;9.116;2023-03-12T06:15:16;-1.20;99.90
33328;DHT22;19692;52.998;9.116;2023-03-12T06:17:41;-1.10;99.90
33328;DHT22;19692;52.998;9.116;2023-03-12T06:20:07;-1.00;99.90
33328;DHT22;19692;52.998;9.116;2023-03-12T06:22:34;-1.00;99.90
33328;DHT22;19692;52.998;9.116;2023-03-12T06:25:00;-1.00;99.90
33328;DHT22;19692;52.998;9.116;2023-03-12T06:27:26;-0.90;99.90
33328;DHT22;19692;52.998;9.116;2023-03-12T06:29:52;-0.90;99.90
33328;DHT22;19692;52.998;9.116;2023-03-12T06:32:18;-0.80;99.90
33328;DHT22;19692;52.998;9.116;2023-03-12T06:34:43;-0.80;99.90
33328;DHT22;19692;52.998;9.116;2023-03-12T06:37:10;-0.80;99.90
33328;DHT22;19692;52.998;9.116;2023-03-12T06:39:37;-0.70;99.90
33328;DHT22;19692;52.998;9.116;2023-03-12T06:42:03;-0.80;99.90
33328;DHT22;19692;52.998;9.116;2023-03-12T06:44:30;-0.70;99.90
33328;DHT22;19692;52.998;9.116;2023-03-12T06:46:56;-0.80;99.90
33328;DHT22;19692;52.998;9.116;2023-03-12T06:49:22;-0.70;99.90
33328;DHT22;19692;52.998;9.116;2023-03-12T06:51:48;-0.70;99.90
33328;DHT22;19692;52.998;9.116;2023-03-12T06:54:14;-0.70;99.90
33328;DHT22;19692;52.998;9.116;2023-03-12T06:56:40;-0.70;99.90
33328;DHT22;19692;52.998;9.116;2023-03-12T06:59:06;-0.60;99.90
33328;DHT22;19692;52.998;9.116;2023-03-12T07:01:32;-0.60;99.90
33328;DHT22;19692;52.998;9.116;2023-03-12T07:03:58;-0.60;99.90
33328;DHT22;19692;52.998;9.116;2023-03-12T07:06:24;-0.60;99.90
33328;DHT22;19692;52.998;9.116;2023-03-12T07:08:50;-0.50;99.90
33328;DHT22;19692;52.998;9.116;2023-03-12T07:11:16;-0.40;99.90
33328;DHT22;19692;52.998;9.116;2023-03-12T07:13:42;-0.40;99.90
33328;DHT22;19692;52.998;9.116;2023-03-12T07:16:09;-0.40;99.90
33328;DHT22;19692;52.998;9.116;2023-03-12T07:18:35;-0.30;99.90
33328;DHT22;19692;52.998;9.116;2023-03-12T07:21:01;-0.20;99.90
33328;DHT22;19692;52.998;9.116;2023-03-12T07:23:27;-0.10;99.90
33328;DHT22;19692;52.998;9.116;2023-03-12T07:25:53;0.00;99.90
33328;DHT22;19692;52.998;9.116;2023-03-12T07:28:20;0.00;99.90
33328;DHT22;19692;52.998;9.116;2023-03-12T07:30:46;0.00;99.90
33328;DHT22;19692;52.998;9.116;2023-03-12T07:33:19;0.00;99.90
33328;DHT22;19692;52.998;9.116;2023-03-12T07:35:46;0.10;99.90
33328;DHT22;19692;52.998;9.116;2023-03-12T07:38:13;0.20;99.90
33328;DHT22;19692;52.998;9.116;2023-03-12T07:40:39;0.20;99.90
33328;DHT22;19692;52.998;9.116;2023-03-12T07:43:05;0.20;99.90
33328;DHT22;19692;52.998;9.116;2023-03-12T07:45:36;0.30;99.90
33328;DHT22;19692;52.998;9.116;2023-03-12T07:48:03;0.40;99.90
33328;DHT22;19692;52.998;9.116;2023-03-12T07:50:30;0.30;99.90
33328;DHT22;19692;52.998;9.116;2023-03-12T07:52:55;0.30;99.90
33328;DHT22;19692;52.998;9.116;2023-03-12T07:55:21;0.30;99.90
33328;DHT22;19692;52.998;9.116;2023-03-12T07:57:47;0.30;99.90
33328;DHT22;19692;52.998;9.116;2023-03-12T08:00:13;0.30;99.90
33328;DHT22;19692;52.998;9.116;2023-03-12T08:02:39;0.30;99.90
33328;DHT22;19692;52.998;9.116;2023-03-12T08:05:05;0.30;99.90
33328;DHT22;19692;52.998;9.116;2023-03-12T08:07:32;0.40;99.90
33328;DHT22;19692;52.998;9.116;2023-03-12T08:10:03;0.40;99.90
33328;DHT22;19692;52.998;9.116;2023-03-12T08:12:30;0.50;99.90
33328;DHT22;19692;52.998;9.116;2023-03-12T08:14:56;0.60;99.90
33328;DHT22;19692;52.998;9.116;2023-03-12T08:17:22;0.70;99.90
33328;DHT22;19692;52.998;9.116;2023-03-12T08:19:48;0.70;99.90
33328;DHT22;19692;52.998;9.116;2023-03-12T08:22:13;0.80;99.90
33328;DHT22;19692;52.998;9.116;2023-03-12T08:24:39;0.80;99.90
33328;DHT22;19692;52.998;9.116;2023-03-12T08:27:05;0.90;99.90
33328;DHT22;19692;52.998;9.116;2023-03-12T08:29:31;1.00;99.90
33328;DHT22;19692;52.998;9.116;2023-03-12T08:31:58;1.10;99.90
33328;DHT22;19692;52.998;9.116;2023-03-12T08:34:24;1.20;99.90
33328;DHT22;19692;52.998;9.116;2023-03-12T08:36:49;1.20;99.90
33328;DHT22;19692;52.998;9.116;2023-03-12T08:39:15;1.10;99.90
33328;DHT22;19692;52.998;9.116;2023-03-12T08:41:41;1.10;99.90
33328;DHT22;19692;52.998;9.116;2023-03-12T08:44:06;1.20;99.90
33328;DHT22;19692;52.998;9.116;2023-03-12T08:46:32;1.30;99.90
33328;DHT22;19692;52.998;9.116;2023-03-12T08:48:59;1.40;99.90
33328;DHT22;19692;52.998;9.116;2023-03-12T08:51:25;1.40;99.90
33328;DHT22;19692;52.998;9.116;2023-03-12T08:53:50;1.60;99.90
33328;DHT22;19692;52.998;9.116;2023-03-12T08:56:16;1.60;99.90
33328;DHT22;19692;52.998;9.116;2023-03-12T08:58:42;1.70;99.90
33328;DHT22;19692;52.998;9.116;2023-03-12T09:01:09;1.70;99.90
33328;DHT22;19692;52.998;9.116;2023-03-12T09:03:35;1.60;99.90
33328;DHT22;19692;52.998;9.116;2023-03-12T09:08:38;1.70;99.90
33328;DHT22;19692;52.998;9.116;2023-03-12T09:11:04;1.70;99.90
33328;DHT22;19692;52.998;9.116;2023-03-12T09:13:30;1.70;99.90
33328;DHT22;19692;52.998;9.116;2023-03-12T09:16:00;1.60;99.90
33328;DHT22;19692;52.998;9.116;2023-03-12T09:18:27;1.70;99.90
33328;DHT22;19692;52.998;9.116;2023-03-12T09:20:54;1.90;99.90
33328;DHT22;19692;52.998;9.116;2023-03-12T09:23:20;1.80;99.90
33328;DHT22;19692;52.998;9.116;2023-03-12T09:25:47;1.80;99.90
33328;DHT22;19692;52.998;9.116;2023-03-12T09:28:13;1.90;99.90
33328;DHT22;19692;52.998;9.116;2023-03-12T09:30:38;1.80;99.90
33328;DHT22;19692;52.998;9.116;2023-03-12T09:33:05;1.80;99.90
33328;DHT22;19692;52.998;9.116;2023-03-12T09:35:30;1.80;99.90
33328;DHT22;19692;52.998;9.116;2023-03-12T09:37:57;1.80;99.90
33328;DHT22;19692;52.998;9.116;2023-03-12T09:40:26;1.90;99.90
33328;DHT22;19692;52.998;9.116;2023-03-12T09:43:03;1.90;99.90
33328;DHT22;19692;52.998;9.116;2023-03-12T09:45:41;2.10;99.90
33328;DHT22;19692;52.998;9.116;2023-03-12T09:48:27;2.30;99.90
33328;DHT22;19692;52.998;9.116;2023-03-12T09:51:35;2.30;99.90
33328;DHT22;19692;52.998;9.116;2023-03-12T09:54:05;2.40;99.90
33328;DHT22;19692;52.998;9.116;2023-03-12T09:56:46;2.40;99.90
33328;DHT22;19692;52.998;9.116;2023-03-12T09:59:12;2.60;99.90
33328;DHT22;19692;52.998;9.116;2023-03-12T10:01:43;2.50;99.90
33328;DHT22;19692;52.998;9.116;2023-03-12T10:04:23;2.70;99.90
33328;DHT22;19692;52.998;9.116;2023-03-12T10:07:01;2.60;99.90
33328;DHT22;19692;52.998;9.116;2023-03-12T10:10:00;2.60;99.90
33328;DHT22;19692;52.998;9.116;2023-03-12T10:15:38;2.80;99.90
33328;DHT22;19692;52.998;9.116;2023-03-12T10:18:29;2.80;99.90
33328;DHT22;19692;52.998;9.116;2023-03-12T10:26:58;3.10;99.90
33328;DHT22;19692;52.998;9.116;2023-03-12T10:29:30;3.10;99.90
33328;DHT22;19692;52.998;9.116;2023-03-12T10:32:01;3.00;99.90
33328;DHT22;19692;52.998;9.116;2023-03-12T10:34:36;3.10;99.90
33328;DHT22;19692;52.998;9.116;2023-03-12T10:37:25;3.30;99.90
33328;DHT22;19692;52.998;9.116;2023-03-12T10:39:54;3.40;99.90
33328;DHT22;19692;52.998;9.116;2023-03-12T10:42:26;3.50;99.90
33328;DHT22;19692;52.998;9.116;2023-03-12T10:44:57;3.50;99.90
33328;DHT22;19692;52.998;9.116;2023-03-12T10:47:33;3.50;99.90
33328;DHT22;19692;52.998;9.116;2023-03-12T10:52:42;3.50;99.90
33328;DHT22;19692;52.998;9.116;2023-03-12T10:55:28;3.60;99.90
33328;DHT22;19692;52.998;9.116;2023-03-12T10:57:55;3.70;99.90
33328;DHT22;19692;52.998;9.116;2023-03-12T11:00:26;3.80;99.90
33328;DHT22;19692;52.998;9.116;2023-03-12T11:03:03;3.90;99.90
33328;DHT22;19692;52.998;9.116;2023-03-12T11:05:46;3.80;99.90
33328;DHT22;19692;52.998;9.116;2023-03-12T11:08:21;3.90;99.90
33328;DHT22;19692;52.998;9.116;2023-03-12T11:10:48;3.80;99.90
33328;DHT22;19692;52.998;9.116;2023-03-12T11:16:23;3.90;99.90
33328;DHT22;19692;52.998;9.116;2023-03-12T11:19:01;3.90;99.90
33328;DHT22;19692;52.998;9.116;2023-03-12T11:21:31;3.90;99.90
33328;DHT22;19692;52.998;9.116;2023-03-12T11:24:06;3.90;99.90
33328;DHT22;19692;52.998;9.116;2023-03-12T11:26:43;3.90;99.90
33328;DHT22;19692;52.998;9.116;2023-03-12T11:29:29;3.90;99.90
33328;DHT22;19692;52.998;9.116;2023-03-12T11:32:22;4.10;99.90
33328;DHT22;19692;52.998;9.116;2023-03-12T11:34:59;4.10;99.90
33328;DHT22;19692;52.998;9.116;2023-03-12T11:43:40;3.90;99.90
33328;DHT22;19692;52.998;9.116;2023-03-12T11:46:25;3.80;99.90
33328;DHT22;19692;52.998;9.116;2023-03-12T11:51:56;3.70;99.90
33328;DHT22;19692;52.998;9.116;2023-03-12T11:54:56;3.60;99.90
33328;DHT22;19692;52.998;9.116;2023-03-12T11:58:12;3.50;99.90
33328;DHT22;19692;52.998;9.116;2023-03-12T12:06:11;3.00;99.90
33328;DHT22;19692;52.998;9.116;2023-03-12T12:18:19;2.30;99.90
33328;DHT22;19692;52.998;9.116;2023-03-12T12:21:01;2.30;99.90
33328;DHT22;19692;52.998;9.116;2023-03-12T12:27:18;2.10;99.90
33328;DHT22;19692;52.998;9.116;2023-03-12T12:30:12;2.10;99.90
33328;DHT22;19692;52.998;9.116;2023-03-12T12:36:09;2.00;99.90
33328;DHT22;19692;52.998;9.116;2023-03-12T12:38:54;2.00;99.90
33328;DHT22;19692;52.998;9.116;2023-03-12T12:41:29;2.00;99.90
33328;DHT22;19692;52.998;9.116;2023-03-12T12:44:22;2.00;99.90
33328;DHT22;19692;52.998;9.116;2023-03-12T12:47:01;2.10;99.90
33328;DHT22;19692;52.998;9.116;2023-03-12T12:49:38;2.00;99.90
33328;DHT22;19692;52.998;9.116;2023-03-12T12:52:11;2.00;99.90
33328;DHT22;19692;52.998;9.116;2023-03-12T12:55:10;2.00;99.90
33328;DHT22;19692;52.998;9.116;2023-03-12T12:57:49;2.00;99.90
33328;DHT22;19692;52.998;9.116;2023-03-12T13:00:35;1.90;99.90
33328;DHT22;19692;52.998;9.116;2023-03-12T13:03:15;1.90;99.90
33328;DHT22;19692;52.998;9.116;2023-03-12T13:06:01;1.90;99.90
33328;DHT22;19692;52.998;9.116;2023-03-12T13:13:44;1.80;99.90
33328;DHT22;19692;52.998;9.116;2023-03-12T13:16:29;1.80;99.90
33328;DHT22;19692;52.998;9.116;2023-03-12T13:18:58;1.80;99.90
33328;DHT22;19692;52.998;9.116;2023-03-12T13:21:35;1.80;99.90
33328;DHT22;19692;52.998;9.116;2023-03-12T13:27:19;1.80;99.90
33328;DHT22;19692;52.998;9.116;2023-03-12T13:29:48;1.90;99.90
33328;DHT22;19692;52.998;9.116;2023-03-12T13:45:30;2.20;99.90
33328;DHT22;19692;52.998;9.116;2023-03-12T13:47:59;2.20;99.90
33328;DHT22;19692;52.998;9.116;2023-03-12T13:50:27;2.10;99.90
33328;DHT22;19692;52.998;9.116;2023-03-12T13:53:05;2.20;99.90
33328;DHT22;19692;52.998;9.116;2023-03-12T13:55:37;2.20;99.90
33328;DHT22;19692;52.998;9.116;2023-03-12T13:58:22;2.20;99.90
33328;DHT22;19692;52.998;9.116;2023-03-12T14:01:06;2.20;99.90
33328;DHT22;19692;52.998;9.116;2023-03-12T14:03:42;2.20;99.90
33328;DHT22;19692;52.998;9.116;2023-03-12T14:06:20;2.20;99.90
33328;DHT22;19692;52.998;9.116;2023-03-12T14:11:34;2.30;99.90
33328;DHT22;19692;52.998;9.116;2023-03-12T14:14:26;2.30;99.90
33328;DHT22;19692;52.998;9.116;2023-03-12T14:16:57;2.30;99.90
33328;DHT22;19692;52.998;9.116;2023-03-12T14:19:27;2.30;99.90
33328;DHT22;19692;52.998;9.116;2023-03-12T14:21:56;2.40;99.90
33328;DHT22;19692;52.998;9.116;2023-03-12T14:24:34;2.40;99.90
33328;DHT22;19692;52.998;9.116;2023-03-12T14:27:05;2.40;99.90
33328;DHT22;19692;52.998;9.116;2023-03-12T14:32:16;2.40;99.90
33328;DHT22;19692;52.998;9.116;2023-03-12T14:34:48;2.40;99.90
33328;DHT22;19692;52.998;9.116;2023-03-12T14:37:23;2.40;99.90
33328;DHT22;19692;52.998;9.116;2023-03-12T14:39:55;2.50;99.90
33328;DHT22;19692;52.998;9.116;2023-03-12T14:42:29;2.50;99.90
33328;DHT22;19692;52.998;9.116;2023-03-12T14:45:08;2.40;99.90
33328;DHT22;19692;52.998;9.116;2023-03-12T14:47:43;2.50;99.90
33328;DHT22;19692;52.998;9.116;2023-03-12T14:52:42;2.50;99.90
33328;DHT22;19692;52.998;9.116;2023-03-12T14:55:13;2.50;99.90
33328;DHT22;19692;52.998;9.116;2023-03-12T14:57:42;2.50;99.90
33328;DHT22;19692;52.998;9.116;2023-03-12T15:00:27;2.60;99.90
33328;DHT22;19692;52.998;9.116;2023-03-12T15:02:56;2.60;99.90
33328;DHT22;19692;52.998;9.116;2023-03-12T15:05:24;2.60;99.90
33328;DHT22;19692;52.998;9.116;2023-03-12T15:07:56;2.70;99.90
33328;DHT22;19692;52.998;9.116;2023-03-12T15:10:26;2.70;99.90
33328;DHT22;19692;52.998;9.116;2023-03-12T15:12:56;2.80;99.90
33328;DHT22;19692;52.998;9.116;2023-03-12T15:15:39;2.80;99.90
33328;DHT22;19692;52.998;9.116;2023-03-12T15:18:10;2.80;99.90
33328;DHT22;19692;52.998;9.116;2023-03-12T15:20:38;2.90;99.90
33328;DHT22;19692;52.998;9.116;2023-03-12T15:23:05;2.90;99.90
33328;DHT22;19692;52.998;9.116;2023-03-12T15:25:35;3.00;99.90
33328;DHT22;19692;52.998;9.116;2023-03-12T15:28:24;3.00;99.90
33328;DHT22;19692;52.998;9.116;2023-03-12T15:33:34;3.00;99.90
33328;DHT22;19692;52.998;9.116;2023-03-12T15:38:49;3.10;99.90
33328;DHT22;19692;52.998;9.116;2023-03-12T15:41:41;3.20;99.90
33328;DHT22;19692;52.998;9.116;2023-03-12T15:44:23;3.30;99.90
33328;DHT22;19692;52.998;9.116;2023-03-12T15:47:13;3.30;99.90
33328;DHT22;19692;52.998;9.116;2023-03-12T15:49:42;3.30;99.90
33328;DHT22;19692;52.998;9.116;2023-03-12T15:54:57;3.30;99.90
33328;DHT22;19692;52.998;9.116;2023-03-12T15:57:32;3.40;99.90
33328;DHT22;19692;52.998;9.116;2023-03-12T16:03:15;3.40;99.90
33328;DHT22;19692;52.998;9.116;2023-03-12T16:05:42;3.50;99.90
33328;DHT22;19692;52.998;9.116;2023-03-12T16:08:15;3.50;99.90
33328;DHT22;19692;52.998;9.116;2023-03-12T16:10:45;3.60;99.90
33328;DHT22;19692;52.998;9.116;2023-03-12T16:13:19;3.60;99.90
33328;DHT22;19692;52.998;9.116;2023-03-12T16:15:47;3.70;99.90
33328;DHT22;19692;52.998;9.116;2023-03-12T16:18:15;3.70;99.90
33328;DHT22;19692;52.998;9.116;2023-03-12T16:20:43;3.80;99.90
33328;DHT22;19692;52.998;9.116;2023-03-12T16:23:09;3.80;99.90
33328;DHT22;19692;52.998;9.116;2023-03-12T16:25:36;3.90;99.90
33328;DHT22;19692;52.998;9.116;2023-03-12T16:28:04;3.90;99.90
33328;DHT22;19692;52.998;9.116;2023-03-12T16:30:33;4.00;99.90
33328;DHT22;19692;52.998;9.116;2023-03-12T16:33:02;4.10;99.90
33328;DHT22;19692;52.998;9.116;2023-03-12T16:35:30;4.10;99.90
33328;DHT22;19692;52.998;9.116;2023-03-12T16:37:57;4.20;99.90
33328;DHT22;19692;52.998;9.116;2023-03-12T16:40:28;4.20;99.90
33328;DHT22;19692;52.998;9.116;2023-03-12T16:42:55;4.30;99.90
33328;DHT22;19692;52.998;9.116;2023-03-12T16:45:24;4.40;99.90
33328;DHT22;19692;52.998;9.116;2023-03-12T16:47:56;4.40;99.90
33328;DHT22;19692;52.998;9.116;2023-03-12T16:50:23;4.50;99.90
33328;DHT22;19692;52.998;9.116;2023-03-12T16:52:50;4.50;99.90
33328;DHT22;19692;52.998;9.116;2023-03-12T16:55:17;4.60;99.90
33328;DHT22;19692;52.998;9.116;2023-03-12T16:57:59;4.60;99.90
33328;DHT22;19692;52.998;9.116;2023-03-12T17:00:29;4.70;99.90
33328;DHT22;19692;52.998;9.116;2023-03-12T17:02:57;4.80;99.90
33328;DHT22;19692;52.998;9.116;2023-03-12T17:05:27;4.80;99.90
33328;DHT22;19692;52.998;9.116;2023-03-12T17:07:54;4.90;99.90
33328;DHT22;19692;52.998;9.116;2023-03-12T17:10:21;4.90;99.90
33328;DHT22;19692;52.998;9.116;2023-03-12T17:12:48;4.90;99.90
33328;DHT22;19692;52.998;9.116;2023-03-12T17:15:19;5.00;99.90
33328;DHT22;19692;52.998;9.116;2023-03-12T17:17:51;5.00;99.90
33328;DHT22;19692;52.998;9.116;2023-03-12T17:20:18;5.10;99.90
33328;DHT22;19692;52.998;9.116;2023-03-12T17:22:45;5.10;99.90
33328;DHT22;19692;52.998;9.116;2023-03-12T17:25:20;5.10;99.90
33328;DHT22;19692;52.998;9.116;2023-03-12T17:27:47;5.10;99.90
33328;DHT22;19692;52.998;9.116;2023-03-12T17:30:13;5.10;99.90
33328;DHT22;19692;52.998;9.116;2023-03-12T17:32:39;5.20;99.90
33328;DHT22;19692;52.998;9.116;2023-03-12T17:35:05;5.20;99.90